METAR UND TAF INFORMATION

METAR FOR EPRZ
ADDS - METARS form results

(0123 UTC 26 June 2022)
Data provider http://aviationweather.gov/metar/data/
 
METAR text: EPRZ 260100Z 12003KT 070V160 CAVOK 16/12 Q1015
Conditions at: EPRZ (RZESZOW/JASIONKA, PL) observed 0100 UTC 26 June 2022
Temperature: 16.0°C (61°F)
Dewpoint: 12.0°C (54°F) [RH = 77%]
Pressure (altimeter): 29.97 inches Hg (1015.0 mb)
Winds: from the ESE (120 degrees) at 3 MPH (3 knots; 1.5 m/s)
Visibility: 6 or more miles (10+ km)
Ceiling: ceiling and visibility are OK
Clouds: unknown
Weather: no significant weather observed at this time

METAR text: EPRZ 260030Z VRB02KT CAVOK 17/12 Q1015
Conditions at: EPRZ (RZESZOW/JASIONKA, PL) observed 0030 UTC 26 June 2022
Temperature: 17.0°C (63°F)
Dewpoint: 12.0°C (54°F) [RH = 72%]
Pressure (altimeter): 29.97 inches Hg (1015.0 mb)
Winds: variable direction winds at 2 MPH (2 knots; 1.0 m/s)
Visibility: 6 or more miles (10+ km)
Ceiling: ceiling and visibility are OK
Clouds: unknown
Weather: no significant weather observed at this time

Forecast for: EPRZ (RZESZOW/JASIONKA, PL)
Text: TAF EPRZ 252330Z 2600/2624 08007KT CAVOK
Forecast period: 0000 UTC 26 June 2022 to 0000 UTC 27 June 2022
Forecast type: FROM: standard forecast or significant change
Winds: from the E (80 degrees) at 8 MPH (7 knots; 3.6 m/s)
Visibility: 6 or more miles (10+ km)
Ceiling: unknown
Clouds: missing
Weather: NSW  (no significant weather)

 FLUGHAFENKARTE

 RUNWAY INFORMATION
Runway 08 Runway length 2700 ft Runway width 1125 ft
Runway elevation 0 ft Runway displaced threshold 0 ft Runway heading 81
Runway 26 Runway length 2700 ft Runway width 1125 ft
Runway elevation 0 ft Runway displaced threshold 0 ft Runway heading 261
Runway 09 Runway length 10499 ft Runway width 148 ft
Runway elevation 688 ft Runway displaced threshold 0 ft Runway heading 91
Runway 27 Runway length 10499 ft Runway width 148 ft
Runway elevation 679 ft Runway displaced threshold 0 ft Runway heading 271

 AIRPORT FREQUENCIES
Type TWR Name RZESZOW TW Frequency 126.8 MHZ

 AIRPORT NEAR NAVIGATION AIDS
Type NDB Name Rzeszow Frequency 440 KHZ
Type NDB Name Rzeszow Frequency 474 KHZ
Type VOR-DME Name Rzeszow Frequency 116200 KHZ